Time;durP1;ratioP1;P1;durP2;ratioP2;P2;SDS_P1;SDS_P2;PMS_P1;PMS_P2;Temp;Humidity;BMP_temperature;BMP_pressure;BME280_temperature;BME280_humidity;BME280_pressure;Samples;Min_cycle;Max_cycle;Signal;HPM_P1;HPM_P2
2021/04/16 00:00:19;;;;;;;6.03;2.50;;;4.40;99.90;;;;;;5054711;28;20240;-71
2021/04/16 00:03:05;;;;;;;5.63;2.40;;;4.50;99.90;;;;;;5057284;28;20297;-71
2021/04/16 00:05:51;;;;;;;4.13;2.47;;;4.60;99.90;;;;;;5057091;28;20762;-71
2021/04/16 00:08:37;;;;;;;3.28;2.53;;;4.50;99.90;;;;;;5057918;28;20212;-71
2021/04/16 00:11:25;;;;;;;3.67;3.10;;;4.50;99.90;;;;;;5065881;28;20231;-71
2021/04/16 00:14:11;;;;;;;7.53;5.07;;;4.60;99.90;;;;;;5056778;28;20589;-71
2021/04/16 00:16:56;;;;;;;9.25;5.93;;;4.70;99.90;;;;;;5064257;28;20302;-71
2021/04/16 00:19:41;;;;;;;7.00;5.13;;;4.70;99.90;;;;;;5063430;28;20208;-70
2021/04/16 00:22:28;;;;;;;7.93;4.15;;;4.70;99.90;;;;;;5062826;28;20283;-70
2021/04/16 00:25:14;;;;;;;8.05;5.30;;;4.80;99.90;;;;;;5059862;28;20219;-70
2021/04/16 00:28:00;;;;;;;13.00;4.97;;;4.80;99.90;;;;;;5052593;28;20213;-69
2021/04/16 00:30:49;;;;;;;7.65;5.00;;;4.80;99.90;;;;;;5058211;28;20674;-71
2021/04/16 00:33:34;;;;;;;6.60;4.23;;;4.60;99.90;;;;;;5053324;28;20224;-71
2021/04/16 00:36:21;;;;;;;5.38;3.90;;;4.60;99.90;;;;;;5058308;28;20488;-70
2021/04/16 00:39:07;;;;;;;6.87;3.83;;;4.60;99.90;;;;;;5065090;28;20207;-70
2021/04/16 00:41:52;;;;;;;12.25;4.80;;;4.60;99.90;;;;;;5059673;28;20469;-71
2021/04/16 00:44:38;;;;;;;9.95;4.47;;;4.60;99.90;;;;;;5063850;28;20574;-70
2021/04/16 00:47:24;;;;;;;5.80;3.53;;;4.50;99.90;;;;;;5063103;28;20254;-70
2021/04/16 00:50:14;;;;;;;4.37;3.43;;;4.50;99.90;;;;;;5057890;28;20476;-70
2021/04/16 00:53:00;;;;;;;6.38;3.20;;;4.40;99.90;;;;;;5068772;28;20438;-71
2021/04/16 00:55:47;;;;;;;6.77;3.60;;;4.20;99.90;;;;;;5060185;28;20705;-71
2021/04/16 00:58:33;;;;;;;6.80;3.73;;;4.20;99.90;;;;;;5060641;28;20546;-71
2021/04/16 01:01:19;;;;;;;10.57;3.53;;;4.00;99.90;;;;;;5058825;28;20533;-71
2021/04/16 01:04:04;;;;;;;7.57;3.72;;;4.00;99.90;;;;;;5063085;28;21014;-71
2021/04/16 01:06:50;;;;;;;7.13;3.15;;;4.00;99.90;;;;;;5059823;28;20255;-71
2021/04/16 01:09:36;;;;;;;5.15;3.40;;;3.90;99.90;;;;;;5063626;28;20681;-70
2021/04/16 01:12:22;;;;;;;6.00;3.33;;;3.90;99.90;;;;;;5062173;28;20236;-71
2021/04/16 01:15:23;;;;;;;6.00;3.10;;;4.00;99.90;;;;;;5067566;28;20467;-70
2021/04/16 01:18:13;;;;;;;8.10;3.30;;;4.10;99.90;;;;;;5059496;28;20458;-71
2021/04/16 01:21:04;;;;;;;6.73;3.80;;;4.20;99.90;;;;;;5063749;28;20500;-71
2021/04/16 01:23:52;;;;;;;4.10;3.20;;;4.30;99.90;;;;;;5060468;28;20825;-70
2021/04/16 01:26:39;;;;;;;4.95;3.08;;;4.40;99.90;;;;;;5062721;28;20605;-70
2021/04/16 01:29:26;;;;;;;5.00;3.40;;;4.40;99.90;;;;;;5057616;28;20220;-71
2021/04/16 01:32:20;;;;;;;6.87;3.07;;;4.40;99.90;;;;;;5064705;28;20453;-71
2021/04/16 01:35:10;;;;;;;6.90;3.20;;;4.60;99.90;;;;;;5061952;28;20433;-71
2021/04/16 01:37:55;;;;;;;7.70;3.80;;;4.70;99.90;;;;;;5064741;28;20425;-71
2021/04/16 01:40:40;;;;;;;3.95;2.90;;;4.80;99.90;;;;;;5057354;28;20928;-71
2021/04/16 01:43:30;;;;;;;5.80;3.30;;;4.90;99.90;;;;;;5062630;28;20298;-71
2021/04/16 01:46:17;;;;;;;6.72;3.08;;;5.00;99.90;;;;;;5063141;28;20442;-70
2021/04/16 01:49:02;;;;;;;4.20;3.25;;;5.10;99.90;;;;;;5060128;28;20262;-71
2021/04/16 01:51:48;;;;;;;4.80;3.10;;;5.10;99.90;;;;;;5060278;28;20231;-71
2021/04/16 01:54:36;;;;;;;3.80;3.00;;;5.20;99.90;;;;;;5065948;28;20489;-71
2021/04/16 01:57:25;;;;;;;3.88;2.92;;;5.30;99.60;;;;;;5068386;28;21109;-70
2021/04/16 02:00:15;;;;;;;4.60;3.40;;;5.30;99.90;;;;;;5067184;28;20201;-71
2021/04/16 02:03:01;;;;;;;6.25;3.17;;;5.30;99.80;;;;;;5060136;28;20465;-71
2021/04/16 02:05:47;;;;;;;6.00;3.70;;;5.30;99.90;;;;;;5062456;28;20209;-71
2021/04/16 02:08:32;;;;;;;3.90;2.90;;;5.40;99.80;;;;;;5060319;28;20483;-71
2021/04/16 02:11:18;;;;;;;5.03;3.40;;;5.40;99.90;;;;;;5067825;28;20442;-70
2021/04/16 02:14:05;;;;;;;6.13;4.00;;;5.40;99.80;;;;;;5058339;28;21313;-70
2021/04/16 02:16:53;;;;;;;5.77;3.50;;;5.40;99.80;;;;;;5062861;28;20522;-71
2021/04/16 02:19:39;;;;;;;6.78;3.25;;;5.40;99.90;;;;;;5066677;28;20441;-71
2021/04/16 02:22:27;;;;;;;4.57;3.50;;;5.40;99.90;;;;;;5061812;28;20270;-71
2021/04/16 02:25:14;;;;;;;6.80;3.90;;;5.30;99.90;;;;;;5062336;28;20573;-70
2021/04/16 02:27:59;;;;;;;4.67;3.80;;;5.30;99.90;;;;;;5054575;28;20574;-71
2021/04/16 02:30:44;;;;;;;9.70;4.00;;;5.20;99.90;;;;;;5066204;28;21086;-70
2021/04/16 02:33:30;;;;;;;5.87;4.30;;;5.20;99.90;;;;;;5054680;28;20532;-71
2021/04/16 02:36:15;;;;;;;6.00;4.67;;;5.10;99.90;;;;;;5060897;28;20563;-71
2021/04/16 02:39:00;;;;;;;6.73;5.03;;;5.10;99.90;;;;;;5063237;28;20470;-71
2021/04/16 02:41:45;;;;;;;9.03;5.23;;;5.20;99.90;;;;;;5061475;28;20443;-71
2021/04/16 02:44:31;;;;;;;7.10;5.35;;;5.30;99.90;;;;;;5059821;28;20566;-70
2021/04/16 02:47:16;;;;;;;8.73;5.30;;;5.30;99.90;;;;;;5061157;28;20258;-70
2021/04/16 02:50:02;;;;;;;8.55;5.47;;;5.30;99.90;;;;;;5060640;28;20529;-70
2021/04/16 02:52:47;;;;;;;8.43;5.87;;;5.20;99.90;;;;;;5054750;28;20205;-69
2021/04/16 02:55:32;;;;;;;8.53;5.87;;;5.30;99.90;;;;;;5059736;28;20479;-70
2021/04/16 02:58:17;;;;;;;6.60;5.83;;;5.30;99.90;;;;;;5057061;28;20822;-69
2021/04/16 03:01:04;;;;;;;7.50;6.30;;;5.00;99.90;;;;;;5060186;28;20503;-70
2021/04/16 03:03:49;;;;;;;11.23;5.93;;;5.00;99.90;;;;;;5058714;28;20635;-70
2021/04/16 03:06:35;;;;;;;7.90;6.13;;;5.00;99.90;;;;;;5064013;28;20483;-70
2021/04/16 03:09:20;;;;;;;8.25;6.45;;;4.90;99.90;;;;;;5059459;28;20466;-69
2021/04/16 03:12:06;;;;;;;9.30;6.20;;;4.90;99.90;;;;;;5059712;28;20196;-71
2021/04/16 03:14:51;;;;;;;9.63;5.87;;;4.90;99.90;;;;;;5060850;28;20462;-72
2021/04/16 03:17:36;;;;;;;7.80;6.40;;;4.80;99.90;;;;;;5055414;28;20451;-71
2021/04/16 03:20:24;;;;;;;8.40;6.10;;;4.70;99.90;;;;;;5061754;28;20445;-71
2021/04/16 03:23:10;;;;;;;8.17;5.73;;;4.50;99.90;;;;;;5054273;28;20454;-71
2021/04/16 03:25:55;;;;;;;10.13;6.80;;;4.50;99.90;;;;;;5055281;28;20454;-70
2021/04/16 03:28:40;;;;;;;10.27;6.10;;;4.40;99.90;;;;;;5062663;28;20204;-70
2021/04/16 03:31:27;;;;;;;8.20;6.93;;;4.50;99.90;;;;;;5068776;28;20471;-70
2021/04/16 03:34:13;;;;;;;8.63;6.50;;;4.30;99.90;;;;;;5057819;28;20469;-70
2021/04/16 03:36:58;;;;;;;10.50;7.40;;;4.10;99.90;;;;;;5062623;28;20483;-71
2021/04/16 03:39:44;;;;;;;12.10;7.60;;;4.00;99.90;;;;;;5058209;28;20442;-71
2021/04/16 03:42:29;;;;;;;9.50;7.23;;;3.90;99.90;;;;;;5059646;28;20898;-71
2021/04/16 03:45:15;;;;;;;10.00;7.10;;;3.80;99.90;;;;;;5056457;28;20464;-71
2021/04/16 03:48:00;;;;;;;12.13;9.70;;;3.80;99.90;;;;;;5061819;28;20425;-70
2021/04/16 03:50:45;;;;;;;10.23;7.70;;;3.60;99.90;;;;;;5056305;28;20543;-70
2021/04/16 03:53:30;;;;;;;10.90;7.72;;;3.60;99.90;;;;;;5056685;28;20958;-70
2021/04/16 03:56:17;;;;;;;9.37;7.83;;;3.70;99.90;;;;;;5063507;28;20216;-70
2021/04/16 03:59:02;;;;;;;22.03;8.43;;;3.40;99.90;;;;;;5061086;28;20831;-70
2021/04/16 04:01:47;;;;;;;25.50;7.60;;;3.40;99.90;;;;;;5058283;28;20769;-70
2021/04/16 04:04:32;;;;;;;11.20;7.50;;;3.50;99.90;;;;;;5058385;28;20457;-70
2021/04/16 04:07:18;;;;;;;14.13;7.97;;;3.30;99.90;;;;;;5061331;28;20203;-70
2021/04/16 04:10:04;;;;;;;9.90;7.50;;;3.40;99.90;;;;;;5058582;28;20207;-71
2021/04/16 04:12:51;;;;;;;13.57;8.32;;;3.20;99.90;;;;;;5062202;28;21108;-71
2021/04/16 04:15:36;;;;;;;13.50;9.18;;;3.00;99.90;;;;;;5064663;28;20243;-71
2021/04/16 04:18:22;;;;;;;16.45;8.43;;;3.10;99.90;;;;;;5054723;28;20693;-70
2021/04/16 04:21:07;;;;;;;11.45;8.05;;;3.20;99.90;;;;;;5064596;28;20203;-71
2021/04/16 04:23:52;;;;;;;11.48;8.32;;;3.30;99.90;;;;;;5055689;28;20582;-70
2021/04/16 04:26:37;;;;;;;9.80;7.50;;;3.50;99.90;;;;;;5056656;28;20215;-70
2021/04/16 04:29:27;;;;;;;8.27;6.88;;;3.40;99.90;;;;;;5053114;28;20208;-71
2021/04/16 04:32:12;;;;;;;10.45;7.72;;;3.40;99.90;;;;;;5061417;28;20640;-71
2021/04/16 04:34:57;;;;;;;14.23;8.40;;;3.40;99.90;;;;;;5063256;28;20235;-70
2021/04/16 04:37:42;;;;;;;13.70;7.30;;;3.30;99.90;;;;;;5057166;28;20254;-71
2021/04/16 04:40:28;;;;;;;11.27;8.52;;;3.30;99.90;;;;;;5065336;28;20551;-71
2021/04/16 04:43:13;;;;;;;10.50;8.18;;;3.20;99.90;;;;;;5060934;28;20211;-71
2021/04/16 04:45:59;;;;;;;15.95;8.10;;;3.10;99.90;;;;;;5058923;28;20200;-71
2021/04/16 04:48:44;;;;;;;11.50;7.78;;;3.20;99.90;;;;;;5063186;28;20677;-71
2021/04/16 04:51:30;;;;;;;12.25;8.70;;;3.20;99.90;;;;;;5063218;28;20208;-70
2021/04/16 04:54:16;;;;;;;11.60;8.30;;;3.20;99.90;;;;;;5056872;28;20228;-71
2021/04/16 04:57:01;;;;;;;10.02;7.93;;;3.10;99.90;;;;;;5062219;28;20602;-71
2021/04/16 04:59:47;;;;;;;12.32;8.70;;;3.20;99.90;;;;;;5057460;28;20567;-71
2021/04/16 05:02:32;;;;;;;19.90;8.38;;;3.20;99.90;;;;;;5055385;28;20776;-70
2021/04/16 05:05:19;;;;;;;10.77;7.85;;;3.20;99.90;;;;;;5058423;28;20236;-71
2021/04/16 05:08:05;;;;;;;11.05;7.97;;;3.30;99.90;;;;;;5060958;28;20244;-71
2021/04/16 05:10:50;;;;;;;44.53;9.57;;;3.30;99.90;;;;;;5059058;28;20672;-71
2021/04/16 05:13:36;;;;;;;20.33;8.57;;;3.40;99.90;;;;;;5057940;28;20220;-71
2021/04/16 05:16:21;;;;;;;17.77;8.15;;;3.30;99.90;;;;;;5056428;28;20204;-71
2021/04/16 05:19:07;;;;;;;14.35;8.30;;;3.30;99.90;;;;;;5062799;28;20254;-70
2021/04/16 05:21:55;;;;;;;11.60;8.95;;;3.30;99.90;;;;;;5058718;28;20613;-70
2021/04/16 05:24:40;;;;;;;9.85;7.85;;;3.30;99.90;;;;;;5051949;28;20917;-70
2021/04/16 05:27:25;;;;;;;12.70;8.27;;;3.40;99.90;;;;;;5056557;28;20205;-71
2021/04/16 05:30:12;;;;;;;21.15;12.18;;;3.50;99.90;;;;;;5060323;28;20442;-72
2021/04/16 05:32:57;;;;;;;20.27;12.73;;;3.40;99.90;;;;;;5063478;28;20619;-71
2021/04/16 05:35:43;;;;;;;19.33;14.30;;;3.50;99.90;;;;;;5059315;28;20682;-71
2021/04/16 05:38:28;;;;;;;17.38;12.43;;;3.50;99.90;;;;;;5060535;28;20251;-71
2021/04/16 05:41:13;;;;;;;16.48;12.20;;;3.60;99.90;;;;;;5061923;28;20572;-71
2021/04/16 05:43:58;;;;;;;13.70;11.02;;;3.70;99.90;;;;;;5063260;28;20259;-71
2021/04/16 05:46:44;;;;;;;14.15;10.00;;;3.80;99.90;;;;;;5063322;28;20196;-70
2021/04/16 05:49:29;;;;;;;13.38;10.25;;;4.00;99.90;;;;;;5065409;28;20192;-70
2021/04/16 05:52:15;;;;;;;14.70;10.98;;;4.00;99.90;;;;;;5064958;28;20678;-71
2021/04/16 05:55:00;;;;;;;12.77;10.52;;;4.10;99.90;;;;;;5063002;28;20283;-71
2021/04/16 05:57:46;;;;;;;17.48;9.98;;;4.10;99.90;;;;;;5062618;28;20588;-70
2021/04/16 06:00:31;;;;;;;16.90;10.30;;;4.10;99.90;;;;;;5062141;28;20240;-72
2021/04/16 06:03:18;;;;;;;15.75;10.68;;;4.20;99.90;;;;;;5060995;28;20579;-70
2021/04/16 06:06:03;;;;;;;12.93;9.43;;;4.30;99.90;;;;;;5062028;28;20263;-71
2021/04/16 06:08:49;;;;;;;13.95;8.90;;;4.40;99.90;;;;;;5059758;28;20263;-71
2021/04/16 06:11:34;;;;;;;11.68;8.73;;;4.50;99.90;;;;;;5062063;28;20211;-70
2021/04/16 06:14:19;;;;;;;9.30;7.68;;;4.60;99.90;;;;;;5057439;28;20220;-72
2021/04/16 06:17:04;;;;;;;11.38;8.80;;;4.80;99.90;;;;;;5061647;28;20231;-71
2021/04/16 06:19:50;;;;;;;9.70;7.47;;;4.90;99.90;;;;;;5066363;28;20204;-71
2021/04/16 06:22:35;;;;;;;11.77;8.48;;;5.00;99.90;;;;;;5061101;28;20303;-71
2021/04/16 06:25:24;;;;;;;9.82;7.30;;;5.20;99.90;;;;;;5059836;28;20223;-71
2021/04/16 06:28:10;;;;;;;8.70;7.47;;;5.30;99.90;;;;;;5059388;28;20205;-71
2021/04/16 06:30:56;;;;;;;9.73;7.65;;;5.50;99.90;;;;;;5060866;28;20204;-72
2021/04/16 06:33:41;;;;;;;9.45;7.10;;;5.50;99.90;;;;;;5061083;28;20252;-72
2021/04/16 06:36:26;;;;;;;9.00;6.97;;;5.60;99.90;;;;;;5058415;28;20263;-70
2021/04/16 06:39:11;;;;;;;10.40;7.50;;;5.80;99.90;;;;;;5059800;28;20446;-72
2021/04/16 06:42:00;;;;;;;9.70;7.50;;;5.80;99.90;;;;;;5066581;28;20519;-70
2021/04/16 06:44:47;;;;;;;12.02;7.55;;;5.90;99.90;;;;;;5055241;28;20475;-70
2021/04/16 06:47:37;;;;;;;12.48;7.30;;;5.90;99.90;;;;;;5059430;28;20250;-71
2021/04/16 06:50:25;;;;;;;9.50;6.87;;;5.90;99.90;;;;;;5056344;28;20711;-70
2021/04/16 06:53:17;;;;;;;11.13;6.57;;;5.90;99.90;;;;;;5060206;28;20523;-70
2021/04/16 06:56:05;;;;;;;11.03;7.07;;;6.00;99.90;;;;;;5063671;28;20450;-70
2021/04/16 06:58:55;;;;;;;9.70;6.43;;;6.00;99.90;;;;;;5055608;28;20453;-71
2021/04/16 07:01:45;;;;;;;11.30;7.40;;;6.10;99.90;;;;;;5063164;28;20204;-72
2021/04/16 07:04:38;;;;;;;10.57;7.05;;;6.20;99.90;;;;;;5057151;28;20638;-71
2021/04/16 07:07:27;;;;;;;13.53;6.50;;;6.20;99.90;;;;;;5057358;28;20220;-70
2021/04/16 07:10:16;;;;;;;8.07;6.00;;;6.20;99.90;;;;;;5064688;28;20479;-71
2021/04/16 07:13:02;;;;;;;6.50;5.67;;;6.20;99.90;;;;;;5065476;28;20526;-71
2021/04/16 07:15:48;;;;;;;7.97;5.50;;;6.30;99.90;;;;;;5057377;28;21087;-71
2021/04/16 07:18:37;;;;;;;6.80;5.33;;;6.30;99.90;;;;;;5057365;28;21053;-71
2021/04/16 07:21:24;;;;;;;6.60;5.53;;;6.30;99.90;;;;;;5058667;28;20475;-71
2021/04/16 07:24:12;;;;;;;6.97;4.93;;;6.40;99.90;;;;;;5061266;28;20525;-70
2021/04/16 07:26:59;;;;;;;6.30;5.35;;;6.60;99.90;;;;;;5061681;28;20865;-71
2021/04/16 07:29:47;;;;;;;9.23;5.67;;;6.60;99.90;;;;;;5060630;28;20211;-70
2021/04/16 07:32:40;;;;;;;7.63;5.23;;;6.70;99.90;;;;;;5059350;28;20450;-71
2021/04/16 07:35:30;;;;;;;10.32;6.05;;;6.80;99.90;;;;;;5064855;28;20454;-71
2021/04/16 07:38:26;;;;;;;7.13;5.50;;;6.90;99.90;;;;;;5060965;28;20204;-71
2021/04/16 07:41:17;;;;;;;10.87;5.63;;;6.90;99.90;;;;;;5060677;28;20678;-71
2021/04/16 07:44:04;;;;;;;6.00;5.33;;;7.00;99.90;;;;;;5063234;28;20522;-70
2021/04/16 07:46:52;;;;;;;8.73;5.60;;;7.10;99.90;;;;;;5064521;28;20442;-71
2021/04/16 07:49:54;;;;;;;8.10;5.70;;;7.20;99.90;;;;;;5060408;28;20458;-71
2021/04/16 07:52:42;;;;;;;8.77;5.97;;;7.20;99.90;;;;;;5059260;28;20461;-71
2021/04/16 07:55:29;;;;;;;6.60;5.90;;;7.20;99.90;;;;;;5059939;28;20463;-71
2021/04/16 07:58:22;;;;;;;8.87;6.33;;;7.30;99.90;;;;;;5065514;28;20467;-71
2021/04/16 08:01:15;;;;;;;11.10;5.90;;;7.20;99.90;;;;;;5064750;28;20503;-70
2021/04/16 08:04:03;;;;;;;8.07;6.30;;;7.20;99.90;;;;;;5057834;28;20448;-71
2021/04/16 08:06:51;;;;;;;7.13;4.80;;;7.20;99.90;;;;;;5059672;28;20491;-69
2021/04/16 08:09:36;;;;;;;8.63;5.67;;;7.20;99.90;;;;;;5057354;28;20954;-71
2021/04/16 08:12:25;;;;;;;8.37;5.27;;;7.30;99.90;;;;;;5060302;28;20856;-71
2021/04/16 08:15:19;;;;;;;5.60;4.20;;;7.30;99.90;;;;;;5058410;28;20973;-71
2021/04/16 08:18:11;;;;;;;6.67;4.40;;;7.30;99.90;;;;;;5062626;28;20500;-70
2021/04/16 08:21:03;;;;;;;6.70;5.30;;;7.30;99.90;;;;;;5057787;28;20439;-70
2021/04/16 08:23:53;;;;;;;6.23;4.87;;;7.20;99.90;;;;;;5058097;28;20552;-71
2021/04/16 08:26:40;;;;;;;8.43;5.77;;;7.30;99.90;;;;;;5064149;28;20449;-71
2021/04/16 08:29:32;;;;;;;7.93;4.93;;;7.20;99.90;;;;;;5066707;28;20995;-70
2021/04/16 08:32:27;;;;;;;7.67;5.50;;;7.20;99.90;;;;;;5062820;28;20424;-70
2021/04/16 08:35:17;;;;;;;7.83;4.60;;;7.20;99.90;;;;;;5062857;28;20487;-70
2021/04/16 08:38:06;;;;;;;5.30;4.73;;;7.20;99.90;;;;;;5058765;28;20515;-70
2021/04/16 08:40:55;;;;;;;6.77;4.93;;;7.20;99.90;;;;;;5063522;28;20849;-71
2021/04/16 08:43:44;;;;;;;7.43;5.37;;;7.20;99.90;;;;;;5057983;28;20457;-70
2021/04/16 08:46:32;;;;;;;5.73;4.37;;;7.20;99.90;;;;;;5057428;28;20450;-70
2021/04/16 08:49:21;;;;;;;6.53;4.10;;;7.30;99.90;;;;;;5062094;28;20450;-71
2021/04/16 08:52:14;;;;;;;6.60;5.00;;;7.30;99.90;;;;;;5065198;28;20443;-70
2021/04/16 08:55:10;;;;;;;6.50;4.53;;;7.40;99.90;;;;;;5062610;28;20494;-71
2021/04/16 08:58:01;;;;;;;6.20;4.77;;;7.40;99.90;;;;;;5062013;28;20433;-71
2021/04/16 09:00:51;;;;;;;6.97;4.93;;;7.50;99.90;;;;;;5054839;28;20509;-71
2021/04/16 09:03:42;;;;;;;6.10;4.27;;;7.50;99.90;;;;;;5061010;28;20441;-71
2021/04/16 09:06:45;;;;;;;4.80;4.03;;;7.60;96.40;;;;;;5064482;28;20990;-70
2021/04/16 09:09:46;;;;;;;6.67;4.20;;;7.50;94.80;;;;;;5064259;28;20501;-71
2021/04/16 09:12:50;;;;;;;5.70;4.77;;;7.50;94.40;;;;;;5064166;28;20502;-70
2021/04/16 09:15:43;;;;;;;3.97;2.80;;;7.50;95.60;;;;;;5067262;28;20440;-71
2021/04/16 09:18:31;;;;;;;6.43;3.97;;;7.50;93.80;;;;;;5059756;28;20939;-70
2021/04/16 09:21:29;;;;;;;4.50;3.00;;;7.50;91.40;;;;;;5058260;28;20429;-70
2021/04/16 09:24:34;;;;;;;5.87;3.20;;;7.50;91.10;;;;;;5061264;28;20505;-70
2021/04/16 09:27:37;;;;;;;4.07;3.30;;;7.50;91.70;;;;;;5064884;28;20450;-72
2021/04/16 09:30:33;;;;;;;4.67;3.40;;;7.60;91.70;;;;;;5065368;28;20416;-70
2021/04/16 09:33:21;;;;;;;6.20;3.90;;;7.60;92.30;;;;;;5065962;28;20458;-70
2021/04/16 09:36:10;;;;;;;5.20;3.80;;;7.80;89.50;;;;;;5059192;28;20458;-70
2021/04/16 09:38:58;;;;;;;3.77;2.37;;;8.00;87.10;;;;;;5061659;28;20505;-71
2021/04/16 09:41:44;;;;;;;4.80;2.53;;;8.00;83.00;;;;;;5066413;28;20785;-70
2021/04/16 09:44:44;;;;;;;8.67;3.20;;;8.10;81.30;;;;;;5063262;28;20474;-70
2021/04/16 09:47:54;;;;;;;7.80;2.90;;;8.10;81.00;;;;;;5058951;28;20518;-70
2021/04/16 09:50:42;;;;;;;3.30;2.50;;;8.10;78.10;;;;;;5052631;28;20501;-71
2021/04/16 09:53:28;;;;;;;3.13;2.20;;;7.90;76.40;;;;;;5058010;28;20967;-71
2021/04/16 09:56:20;;;;;;;3.00;2.10;;;7.80;78.70;;;;;;5060716;28;20778;-70
2021/04/16 09:59:07;;;;;;;5.50;2.80;;;7.90;81.50;;;;;;5062300;28;20459;-70
2021/04/16 10:02:33;;;;;;;4.83;2.70;;;8.00;79.10;;;;;;5064949;28;20442;-71
2021/04/16 10:05:32;;;;;;;3.97;3.20;;;8.00;76.00;;;;;;5042856;28;20566;-71
2021/04/16 10:08:27;;;;;;;5.50;2.70;;;7.90;76.90;;;;;;5062794;28;20467;-70
2021/04/16 10:11:15;;;;;;;3.60;2.67;;;7.90;79.10;;;;;;5056548;28;20433;-70
2021/04/16 10:14:15;;;;;;;5.93;2.87;;;8.00;77.80;;;;;;5065261;28;20438;-71
2021/04/16 10:17:03;;;;;;;4.70;2.20;;;7.90;77.00;;;;;;5057755;28;20467;-71
2021/04/16 10:19:50;;;;;;;2.53;2.00;;;7.80;77.50;;;;;;5066226;28;20602;-71
2021/04/16 10:22:37;;;;;;;4.37;2.57;;;7.80;77.70;;;;;;5058240;28;20475;-71
2021/04/16 12:39:47;;;;;;;3.80;2.67;;;9.00;72.20;;;;;;5056583;28;20446;-71
2021/04/16 12:42:32;;;;;;;2.40;1.70;;;9.00;69.00;;;;;;5068396;28;20558;-69
2021/04/16 12:45:19;;;;;;;2.37;1.50;;;8.90;67.80;;;;;;5061151;28;20859;-70
2021/04/16 12:48:06;;;;;;;2.43;1.70;;;8.80;66.90;;;;;;5058004;28;20548;-72
2021/04/16 12:50:52;;;;;;;4.00;1.90;;;8.80;69.20;;;;;;5058229;28;21011;-72
2021/04/16 12:53:37;;;;;;;2.67;1.90;;;8.70;67.10;;;;;;5060935;28;20523;-71
2021/04/16 12:56:30;;;;;;;2.73;1.87;;;8.50;67.70;;;;;;5055652;28;20873;-71
2021/04/16 12:59:18;;;;;;;3.20;2.00;;;8.40;69.40;;;;;;5061480;28;20488;-71
2021/04/16 13:02:04;;;;;;;2.90;2.27;;;8.40;69.10;;;;;;5055232;28;20898;-72
2021/04/16 13:04:50;;;;;;;4.03;1.90;;;8.50;69.60;;;;;;5056551;28;20448;-72
2021/04/16 13:07:36;;;;;;;3.07;1.87;;;8.50;69.00;;;;;;5055914;28;20422;-72
2021/04/16 13:10:23;;;;;;;8.13;2.60;;;8.50;69.50;;;;;;5052933;28;20465;-71
2021/04/16 13:13:08;;;;;;;3.60;3.00;;;8.50;69.80;;;;;;5066744;28;20442;-70
2021/04/16 13:15:55;;;;;;;3.33;2.17;;;8.60;69.00;;;;;;5063277;28;20458;-73
2021/04/16 13:18:43;;;;;;;3.30;2.03;;;8.60;68.70;;;;;;5065646;28;21213;-71
2021/04/16 13:21:31;;;;;;;3.10;2.10;;;8.70;69.70;;;;;;5065486;28;20430;-71
2021/04/16 13:24:16;;;;;;;4.00;2.80;;;8.80;69.60;;;;;;5063609;28;20492;-72
2021/04/16 13:27:04;;;;;;;4.77;2.40;;;8.90;68.60;;;;;;5059040;28;20450;-72
2021/04/16 13:29:49;;;;;;;3.27;2.10;;;8.90;66.80;;;;;;5051612;28;20852;-71
2021/04/16 13:32:40;;;;;;;2.77;1.83;;;9.00;66.60;;;;;;5058143;28;20463;-71
2021/04/16 13:35:31;;;;;;;5.03;3.00;;;9.00;65.30;;;;;;5058484;28;20495;-72
2021/04/16 13:38:19;;;;;;;4.63;3.57;;;9.00;65.60;;;;;;5054193;28;20858;-72
2021/04/16 13:41:06;;;;;;;3.60;1.83;;;9.00;66.60;;;;;;5061318;28;20961;-72
2021/04/16 13:43:52;;;;;;;5.27;2.00;;;9.00;66.40;;;;;;5059934;28;20432;-72
2021/04/16 13:46:40;;;;;;;7.27;1.63;;;9.00;66.60;;;;;;5057766;28;20913;-72
2021/04/16 13:49:25;;;;;;;4.00;1.70;;;9.00;66.60;;;;;;5060282;28;20650;-72
2021/04/16 13:52:11;;;;;;;3.13;1.93;;;9.00;66.60;;;;;;5066452;28;20466;-72
2021/04/16 13:54:57;;;;;;;3.70;2.13;;;9.00;66.60;;;;;;5067241;28;20507;-72
2021/04/16 13:57:42;;;;;;;3.20;1.90;;;9.00;66.60;;;;;;5062813;28;20449;-72
2021/04/16 14:00:30;;;;;;;4.83;1.97;;;9.00;66.80;;;;;;5061111;28;21634;-72
2021/04/16 14:03:28;;;;;;;3.80;1.97;;;8.90;66.10;;;;;;5060142;28;20513;-72
2021/04/16 14:06:17;;;;;;;2.90;1.80;;;8.90;66.50;;;;;;5061486;28;20445;-73
2021/04/16 14:09:07;;;;;;;4.17;2.17;;;8.80;67.50;;;;;;5062961;28;20455;-73
2021/04/16 14:11:53;;;;;;;4.77;2.17;;;8.80;67.60;;;;;;5062899;28;20464;-72
2021/04/16 14:14:39;;;;;;;5.30;2.03;;;8.90;67.40;;;;;;5060911;28;20484;-72
2021/04/16 14:17:26;;;;;;;4.43;2.60;;;8.90;67.10;;;;;;5059822;28;20425;-72
2021/04/16 14:20:21;;;;;;;5.03;1.87;;;8.80;67.30;;;;;;5056149;28;20457;-73
2021/04/16 14:23:09;;;;;;;3.63;2.13;;;8.80;67.50;;;;;;5063183;28;20429;-73
2021/04/16 14:25:54;;;;;;;6.23;1.87;;;8.80;68.40;;;;;;5061732;28;20449;-72
2021/04/16 14:28:40;;;;;;;3.60;2.50;;;8.80;68.10;;;;;;5065987;28;20421;-73
2021/04/16 14:31:25;;;;;;;7.80;2.10;;;8.90;68.10;;;;;;5057527;28;21069;-72
2021/04/16 14:34:14;;;;;;;3.67;2.33;;;9.00;67.90;;;;;;5061151;28;20534;-72
2021/04/16 14:36:59;;;;;;;5.00;2.27;;;9.00;68.00;;;;;;5069546;28;20442;-72
2021/04/16 14:39:44;;;;;;;3.80;2.00;;;9.10;67.80;;;;;;5067115;28;20421;-73
2021/04/16 14:42:29;;;;;;;4.30;2.10;;;9.10;67.60;;;;;;5064187;28;20478;-71
2021/04/16 14:45:17;;;;;;;4.37;2.30;;;9.10;68.40;;;;;;5063141;28;20481;-72
2021/04/16 14:48:04;;;;;;;3.30;2.27;;;9.00;68.30;;;;;;5052899;28;20484;-73
2021/04/16 14:50:50;;;;;;;3.43;2.00;;;8.90;68.10;;;;;;5068762;28;20472;-73
2021/04/16 14:53:39;;;;;;;4.93;2.30;;;8.80;67.40;;;;;;5070375;28;20405;-73
2021/04/16 14:56:25;;;;;;;4.20;2.40;;;8.80;68.80;;;;;;5070797;28;20766;-72
2021/04/16 14:59:17;;;;;;;6.00;2.60;;;8.90;68.70;;;;;;5070530;28;20430;-73
2021/04/16 15:02:04;;;;;;;4.37;2.87;;;8.90;70.30;;;;;;5066292;28;20515;-72
2021/04/16 15:04:49;;;;;;;6.50;2.00;;;8.80;70.70;;;;;;5068682;28;20482;-72
2021/04/16 15:07:40;;;;;;;4.10;2.80;;;8.80;71.10;;;;;;5066108;28;20472;-73
2021/04/16 15:10:28;;;;;;;3.90;2.80;;;8.70;71.50;;;;;;5070556;28;20419;-73
2021/04/16 15:13:18;;;;;;;3.33;2.60;;;8.60;73.80;;;;;;5074619;28;20409;-72
2021/04/16 15:16:05;;;;;;;4.63;3.10;;;8.50;75.80;;;;;;5069499;28;20417;-72
2021/04/16 15:18:51;;;;;;;3.67;2.40;;;8.50;76.30;;;;;;5070216;28;20841;-72
2021/04/16 15:21:36;;;;;;;5.77;3.00;;;8.40;77.40;;;;;;5069939;28;21121;-73
2021/04/16 15:24:22;;;;;;;4.33;2.30;;;8.50;78.60;;;;;;5053941;28;20833;-73
2021/04/16 15:27:09;;;;;;;5.40;3.40;;;8.40;79.10;;;;;;5053817;28;20455;-73
2021/04/16 15:29:56;;;;;;;5.30;2.67;;;8.40;80.10;;;;;;5053009;28;20597;-73
2021/04/16 15:32:44;;;;;;;4.10;2.90;;;8.40;80.80;;;;;;5061164;28;20509;-73
2021/04/16 15:47:44;;;;;;;7.03;3.30;;;8.20;89.50;;;;;;5069848;28;20397;-73
2021/04/16 15:50:33;;;;;;;4.47;2.77;;;8.20;90.00;;;;;;5069360;28;20423;-72
2021/04/16 15:53:21;;;;;;;4.90;3.33;;;8.20;90.20;;;;;;5069409;28;20448;-73
2021/04/16 15:56:07;;;;;;;5.07;2.90;;;8.20;90.10;;;;;;5065954;28;20424;-72
2021/04/16 15:58:55;;;;;;;4.23;3.10;;;8.30;89.30;;;;;;5050820;28;20435;-72
2021/04/16 16:01:41;;;;;;;5.07;3.17;;;8.40;88.70;;;;;;5049616;28;20505;-73
2021/04/16 16:04:26;;;;;;;3.43;2.77;;;8.40;87.60;;;;;;5049108;28;20466;-72
2021/04/16 16:07:12;;;;;;;4.30;2.50;;;8.40;87.00;;;;;;5054563;28;20429;-72
2021/04/16 16:09:57;;;;;;;7.90;3.07;;;8.40;87.80;;;;;;5069490;28;20482;-73
2021/04/16 16:12:48;;;;;;;4.23;2.67;;;8.40;88.00;;;;;;5065762;28;20446;-74
2021/04/16 16:15:35;;;;;;;4.43;2.70;;;8.40;87.60;;;;;;5064327;28;20422;-72
2021/04/16 16:18:21;;;;;;;6.20;2.57;;;8.40;88.80;;;;;;5069258;28;20401;-73
2021/04/16 16:21:08;;;;;;;4.13;2.77;;;8.40;89.50;;;;;;5069383;28;20404;-72
2021/04/16 16:23:54;;;;;;;5.17;2.97;;;8.40;88.70;;;;;;5069211;28;20421;-72
2021/04/16 16:26:41;;;;;;;3.90;2.70;;;8.40;89.40;;;;;;5055412;28;20467;-72
2021/04/16 16:29:30;;;;;;;4.73;2.80;;;8.30;89.20;;;;;;5050347;28;20437;-73
2021/04/16 16:32:18;;;;;;;3.30;2.50;;;8.30;89.10;;;;;;5051555;28;20409;-72
2021/04/16 16:35:05;;;;;;;6.53;3.30;;;8.40;88.40;;;;;;5066525;28;20924;-72
2021/04/16 16:37:51;;;;;;;4.13;2.40;;;8.40;88.70;;;;;;5063468;28;20422;-73
2021/04/16 16:40:38;;;;;;;5.00;2.50;;;8.40;86.40;;;;;;5062879;28;20533;-72
2021/04/16 16:43:27;;;;;;;4.60;2.83;;;8.50;86.80;;;;;;5067469;28;20801;-73
2021/04/16 16:46:15;;;;;;;5.53;2.30;;;8.40;88.10;;;;;;5068846;28;20453;-72
2021/04/16 16:49:00;;;;;;;5.17;3.57;;;8.50;86.40;;;;;;5068351;28;21018;-73
2021/04/16 16:51:45;;;;;;;3.20;2.30;;;8.40;84.40;;;;;;5065040;28;20530;-73
2021/04/16 16:54:30;;;;;;;4.10;2.53;;;8.50;84.60;;;;;;5065433;28;20468;-73
2021/04/16 16:57:21;;;;;;;2.80;2.30;;;8.50;85.40;;;;;;5060715;28;20417;-73
2021/04/16 17:00:10;;;;;;;7.13;2.83;;;8.50;86.40;;;;;;5065365;28;20507;-73
2021/04/16 17:02:55;;;;;;;4.13;2.70;;;8.60;86.30;;;;;;5066948;28;20393;-72
2021/04/16 17:05:40;;;;;;;6.63;2.60;;;8.60;85.70;;;;;;5066049;28;20569;-74
2021/04/16 17:08:26;;;;;;;4.50;2.60;;;8.60;85.10;;;;;;5068938;28;20957;-73